sensor_id;sensor_type;location;lat;lon;timestamp;P1;durP1;ratioP1;P2;durP2;ratioP2
8632;SDS011;4354;49.832;10.746;2022-11-25T00:01:11;32.70;;;7.67;;
8632;SDS011;4354;49.832;10.746;2022-11-25T00:03:42;9.70;;;6.67;;
8632;SDS011;4354;49.832;10.746;2022-11-25T00:06:11;11.13;;;6.40;;
8632;SDS011;4354;49.832;10.746;2022-11-25T00:08:46;22.53;;;6.40;;
8632;SDS011;4354;49.832;10.746;2022-11-25T00:11:14;26.57;;;7.43;;
8632;SDS011;4354;49.832;10.746;2022-11-25T00:13:42;26.23;;;7.53;;
8632;SDS011;4354;49.832;10.746;2022-11-25T00:16:11;16.63;;;7.10;;
8632;SDS011;4354;49.832;10.746;2022-11-25T00:18:42;9.77;;;7.50;;
8632;SDS011;4354;49.832;10.746;2022-11-25T00:21:14;7.83;;;6.93;;
8632;SDS011;4354;49.832;10.746;2022-11-25T00:23:43;12.70;;;6.50;;
8632;SDS011;4354;49.832;10.746;2022-11-25T00:26:15;8.27;;;7.00;;
8632;SDS011;4354;49.832;10.746;2022-11-25T00:28:43;9.73;;;6.67;;
8632;SDS011;4354;49.832;10.746;2022-11-25T00:31:12;10.67;;;6.57;;
8632;SDS011;4354;49.832;10.746;2022-11-25T00:33:41;12.90;;;6.67;;
8632;SDS011;4354;49.832;10.746;2022-11-25T00:36:20;15.53;;;6.43;;
8632;SDS011;4354;49.832;10.746;2022-11-25T00:39:09;11.10;;;6.33;;
8632;SDS011;4354;49.832;10.746;2022-11-25T00:41:38;11.63;;;6.00;;
8632;SDS011;4354;49.832;10.746;2022-11-25T00:44:23;9.63;;;6.67;;
8632;SDS011;4354;49.832;10.746;2022-11-25T00:47:10;6.50;;;5.80;;
8632;SDS011;4354;49.832;10.746;2022-11-25T00:49:47;17.07;;;6.63;;
8632;SDS011;4354;49.832;10.746;2022-11-25T00:52:23;24.10;;;6.70;;
8632;SDS011;4354;49.832;10.746;2022-11-25T00:54:52;16.53;;;7.43;;
8632;SDS011;4354;49.832;10.746;2022-11-25T00:57:20;15.33;;;7.60;;
8632;SDS011;4354;49.832;10.746;2022-11-25T00:59:48;14.57;;;7.73;;
8632;SDS011;4354;49.832;10.746;2022-11-25T01:02:16;12.17;;;7.30;;
8632;SDS011;4354;49.832;10.746;2022-11-25T01:04:43;12.60;;;6.97;;
8632;SDS011;4354;49.832;10.746;2022-11-25T01:07:11;20.67;;;7.00;;
8632;SDS011;4354;49.832;10.746;2022-11-25T01:09:38;21.87;;;6.77;;
8632;SDS011;4354;49.832;10.746;2022-11-25T01:12:08;27.80;;;7.07;;
8632;SDS011;4354;49.832;10.746;2022-11-25T01:14:35;18.27;;;6.90;;
8632;SDS011;4354;49.832;10.746;2022-11-25T01:17:02;12.87;;;6.60;;
8632;SDS011;4354;49.832;10.746;2022-11-25T01:19:30;17.13;;;7.20;;
8632;SDS011;4354;49.832;10.746;2022-11-25T01:21:56;24.23;;;7.07;;
8632;SDS011;4354;49.832;10.746;2022-11-25T01:24:23;24.47;;;7.10;;
8632;SDS011;4354;49.832;10.746;2022-11-25T01:26:52;17.80;;;6.83;;
8632;SDS011;4354;49.832;10.746;2022-11-25T01:29:20;17.00;;;7.40;;
8632;SDS011;4354;49.832;10.746;2022-11-25T01:31:47;12.70;;;7.57;;
8632;SDS011;4354;49.832;10.746;2022-11-25T01:34:15;19.40;;;7.10;;
8632;SDS011;4354;49.832;10.746;2022-11-25T01:36:48;42.17;;;7.13;;
8632;SDS011;4354;49.832;10.746;2022-11-25T01:39:16;39.77;;;7.83;;
8632;SDS011;4354;49.832;10.746;2022-11-25T01:41:43;19.83;;;6.97;;
8632;SDS011;4354;49.832;10.746;2022-11-25T01:49:40;53.80;;;7.63;;
8632;SDS011;4354;49.832;10.746;2022-11-25T01:55:13;19.87;;;6.97;;
8632;SDS011;4354;49.832;10.746;2022-11-25T01:57:56;23.43;;;6.87;;
8632;SDS011;4354;49.832;10.746;2022-11-25T02:00:29;13.37;;;7.70;;
8632;SDS011;4354;49.832;10.746;2022-11-25T02:03:00;31.17;;;7.23;;
8632;SDS011;4354;49.832;10.746;2022-11-25T02:05:41;20.80;;;6.90;;
8632;SDS011;4354;49.832;10.746;2022-11-25T02:08:16;25.53;;;7.13;;
8632;SDS011;4354;49.832;10.746;2022-11-25T02:10:44;27.27;;;6.57;;
8632;SDS011;4354;49.832;10.746;2022-11-25T02:13:11;19.80;;;6.97;;
8632;SDS011;4354;49.832;10.746;2022-11-25T02:15:38;10.17;;;6.57;;
8632;SDS011;4354;49.832;10.746;2022-11-25T02:18:05;23.40;;;6.37;;
8632;SDS011;4354;49.832;10.746;2022-11-25T02:20:32;29.67;;;6.30;;
8632;SDS011;4354;49.832;10.746;2022-11-25T02:23:17;26.63;;;7.57;;
8632;SDS011;4354;49.832;10.746;2022-11-25T02:25:51;9.77;;;5.97;;
8632;SDS011;4354;49.832;10.746;2022-11-25T02:28:23;23.03;;;6.03;;
8632;SDS011;4354;49.832;10.746;2022-11-25T02:30:52;38.23;;;6.97;;
8632;SDS011;4354;49.832;10.746;2022-11-25T02:33:19;18.90;;;5.80;;
8632;SDS011;4354;49.832;10.746;2022-11-25T02:35:51;20.60;;;7.20;;
8632;SDS011;4354;49.832;10.746;2022-11-25T02:41:14;21.73;;;7.63;;
8632;SDS011;4354;49.832;10.746;2022-11-25T02:43:47;19.30;;;7.17;;
8632;SDS011;4354;49.832;10.746;2022-11-25T02:46:15;34.47;;;7.27;;
8632;SDS011;4354;49.832;10.746;2022-11-25T02:48:48;9.03;;;6.33;;
8632;SDS011;4354;49.832;10.746;2022-11-25T02:51:35;17.83;;;7.20;;
8632;SDS011;4354;49.832;10.746;2022-11-25T02:54:03;16.30;;;6.77;;
8632;SDS011;4354;49.832;10.746;2022-11-25T02:56:32;23.77;;;6.70;;
8632;SDS011;4354;49.832;10.746;2022-11-25T02:59:00;13.60;;;6.30;;
8632;SDS011;4354;49.832;10.746;2022-11-25T03:01:28;10.50;;;6.97;;
8632;SDS011;4354;49.832;10.746;2022-11-25T03:03:56;12.40;;;6.30;;
8632;SDS011;4354;49.832;10.746;2022-11-25T03:06:24;6.80;;;5.67;;
8632;SDS011;4354;49.832;10.746;2022-11-25T03:08:51;13.37;;;6.23;;
8632;SDS011;4354;49.832;10.746;2022-11-25T03:11:18;8.97;;;5.80;;
8632;SDS011;4354;49.832;10.746;2022-11-25T03:13:45;8.77;;;5.80;;
8632;SDS011;4354;49.832;10.746;2022-11-25T03:16:12;15.17;;;6.80;;
8632;SDS011;4354;49.832;10.746;2022-11-25T03:18:39;15.80;;;6.70;;
8632;SDS011;4354;49.832;10.746;2022-11-25T03:21:06;19.30;;;6.17;;
8632;SDS011;4354;49.832;10.746;2022-11-25T03:23:33;21.90;;;6.37;;
8632;SDS011;4354;49.832;10.746;2022-11-25T03:26:03;7.03;;;5.33;;
8632;SDS011;4354;49.832;10.746;2022-11-25T03:28:31;7.93;;;5.63;;
8632;SDS011;4354;49.832;10.746;2022-11-25T03:30:58;35.23;;;6.20;;
8632;SDS011;4354;49.832;10.746;2022-11-25T03:33:24;11.50;;;5.80;;
8632;SDS011;4354;49.832;10.746;2022-11-25T03:35:51;14.73;;;6.67;;
8632;SDS011;4354;49.832;10.746;2022-11-25T03:38:19;11.63;;;6.30;;
8632;SDS011;4354;49.832;10.746;2022-11-25T03:40:46;11.30;;;6.40;;
8632;SDS011;4354;49.832;10.746;2022-11-25T03:43:13;26.10;;;6.73;;
8632;SDS011;4354;49.832;10.746;2022-11-25T03:45:40;34.63;;;6.63;;
8632;SDS011;4354;49.832;10.746;2022-11-25T03:48:07;8.67;;;5.53;;
8632;SDS011;4354;49.832;10.746;2022-11-25T03:50:34;11.50;;;6.23;;
8632;SDS011;4354;49.832;10.746;2022-11-25T03:53:01;25.30;;;6.27;;
8632;SDS011;4354;49.832;10.746;2022-11-25T03:55:28;9.53;;;5.10;;
8632;SDS011;4354;49.832;10.746;2022-11-25T03:58:01;19.13;;;5.87;;
8632;SDS011;4354;49.832;10.746;2022-11-25T04:00:28;59.97;;;7.43;;
8632;SDS011;4354;49.832;10.746;2022-11-25T04:02:55;20.67;;;6.17;;
8632;SDS011;4354;49.832;10.746;2022-11-25T04:05:22;9.77;;;5.53;;
8632;SDS011;4354;49.832;10.746;2022-11-25T04:07:49;22.23;;;6.20;;
8632;SDS011;4354;49.832;10.746;2022-11-25T04:10:22;12.63;;;5.17;;
8632;SDS011;4354;49.832;10.746;2022-11-25T04:12:49;39.30;;;7.43;;
8632;SDS011;4354;49.832;10.746;2022-11-25T04:15:17;12.67;;;6.07;;
8632;SDS011;4354;49.832;10.746;2022-11-25T04:17:45;14.10;;;6.10;;
8632;SDS011;4354;49.832;10.746;2022-11-25T04:20:12;27.03;;;6.60;;
8632;SDS011;4354;49.832;10.746;2022-11-25T04:22:40;15.80;;;5.97;;
8632;SDS011;4354;49.832;10.746;2022-11-25T04:25:07;8.93;;;5.67;;
8632;SDS011;4354;49.832;10.746;2022-11-25T04:27:34;16.03;;;6.67;;
8632;SDS011;4354;49.832;10.746;2022-11-25T04:30:01;9.43;;;5.67;;
8632;SDS011;4354;49.832;10.746;2022-11-25T04:32:29;11.97;;;6.43;;
8632;SDS011;4354;49.832;10.746;2022-11-25T04:34:56;24.50;;;7.67;;
8632;SDS011;4354;49.832;10.746;2022-11-25T04:37:23;19.70;;;8.03;;
8632;SDS011;4354;49.832;10.746;2022-11-25T04:39:53;11.50;;;7.60;;
8632;SDS011;4354;49.832;10.746;2022-11-25T04:42:21;8.87;;;7.27;;
8632;SDS011;4354;49.832;10.746;2022-11-25T04:44:57;8.03;;;6.27;;
8632;SDS011;4354;49.832;10.746;2022-11-25T04:47:45;14.30;;;7.13;;
8632;SDS011;4354;49.832;10.746;2022-11-25T04:50:15;13.67;;;6.80;;
8632;SDS011;4354;49.832;10.746;2022-11-25T04:52:46;14.73;;;7.40;;
8632;SDS011;4354;49.832;10.746;2022-11-25T04:55:14;14.75;;;9.15;;
8632;SDS011;4354;49.832;10.746;2022-11-25T04:57:41;10.30;;;7.60;;
8632;SDS011;4354;49.832;10.746;2022-11-25T05:00:08;19.20;;;7.73;;
8632;SDS011;4354;49.832;10.746;2022-11-25T05:02:36;10.13;;;6.60;;
8632;SDS011;4354;49.832;10.746;2022-11-25T05:05:03;10.07;;;6.93;;
8632;SDS011;4354;49.832;10.746;2022-11-25T05:07:31;7.90;;;6.73;;
8632;SDS011;4354;49.832;10.746;2022-11-25T05:09:58;19.97;;;8.27;;
8632;SDS011;4354;49.832;10.746;2022-11-25T05:12:26;11.57;;;7.03;;
8632;SDS011;4354;49.832;10.746;2022-11-25T05:14:55;19.20;;;7.87;;
8632;SDS011;4354;49.832;10.746;2022-11-25T05:17:24;12.30;;;7.57;;
8632;SDS011;4354;49.832;10.746;2022-11-25T05:19:53;11.00;;;7.23;;
8632;SDS011;4354;49.832;10.746;2022-11-25T05:22:21;13.73;;;8.20;;
8632;SDS011;4354;49.832;10.746;2022-11-25T05:24:49;13.77;;;7.83;;
8632;SDS011;4354;49.832;10.746;2022-11-25T05:27:18;32.50;;;8.53;;
8632;SDS011;4354;49.832;10.746;2022-11-25T05:29:45;11.43;;;7.37;;
8632;SDS011;4354;49.832;10.746;2022-11-25T05:32:20;19.93;;;7.37;;
8632;SDS011;4354;49.832;10.746;2022-11-25T05:34:47;17.60;;;7.57;;
8632;SDS011;4354;49.832;10.746;2022-11-25T05:37:14;20.03;;;8.03;;
8632;SDS011;4354;49.832;10.746;2022-11-25T05:39:47;35.57;;;8.63;;
8632;SDS011;4354;49.832;10.746;2022-11-25T05:42:14;17.83;;;8.77;;
8632;SDS011;4354;49.832;10.746;2022-11-25T05:44:42;23.23;;;8.40;;
8632;SDS011;4354;49.832;10.746;2022-11-25T05:47:09;26.80;;;8.40;;
8632;SDS011;4354;49.832;10.746;2022-11-25T05:49:36;19.40;;;7.77;;
8632;SDS011;4354;49.832;10.746;2022-11-25T05:52:03;50.87;;;8.53;;
8632;SDS011;4354;49.832;10.746;2022-11-25T05:54:30;21.93;;;7.70;;
8632;SDS011;4354;49.832;10.746;2022-11-25T05:56:57;17.60;;;7.30;;
8632;SDS011;4354;49.832;10.746;2022-11-25T05:59:24;20.93;;;7.63;;
8632;SDS011;4354;49.832;10.746;2022-11-25T06:01:54;25.27;;;8.53;;
8632;SDS011;4354;49.832;10.746;2022-11-25T06:04:21;19.83;;;7.90;;
8632;SDS011;4354;49.832;10.746;2022-11-25T06:06:48;33.50;;;8.57;;
8632;SDS011;4354;49.832;10.746;2022-11-25T06:09:14;26.43;;;8.90;;
8632;SDS011;4354;49.832;10.746;2022-11-25T06:11:41;28.67;;;8.87;;
8632;SDS011;4354;49.832;10.746;2022-11-25T06:14:08;34.17;;;8.33;;
8632;SDS011;4354;49.832;10.746;2022-11-25T06:16:56;18.20;;;7.83;;
8632;SDS011;4354;49.832;10.746;2022-11-25T06:19:23;32.90;;;8.57;;
8632;SDS011;4354;49.832;10.746;2022-11-25T06:21:49;49.73;;;9.53;;
8632;SDS011;4354;49.832;10.746;2022-11-25T06:24:16;19.23;;;8.17;;
8632;SDS011;4354;49.832;10.746;2022-11-25T06:26:43;35.10;;;9.50;;
8632;SDS011;4354;49.832;10.746;2022-11-25T06:29:10;48.87;;;11.37;;
8632;SDS011;4354;49.832;10.746;2022-11-25T06:31:37;37.50;;;9.30;;
8632;SDS011;4354;49.832;10.746;2022-11-25T06:34:04;27.53;;;9.73;;
8632;SDS011;4354;49.832;10.746;2022-11-25T06:36:33;10.93;;;7.57;;
8632;SDS011;4354;49.832;10.746;2022-11-25T06:39:00;27.53;;;12.63;;
8632;SDS011;4354;49.832;10.746;2022-11-25T06:41:27;37.60;;;18.17;;
8632;SDS011;4354;49.832;10.746;2022-11-25T06:43:54;37.03;;;18.53;;
8632;SDS011;4354;49.832;10.746;2022-11-25T06:46:21;62.17;;;18.83;;
8632;SDS011;4354;49.832;10.746;2022-11-25T06:48:51;45.17;;;16.80;;
8632;SDS011;4354;49.832;10.746;2022-11-25T06:51:18;24.37;;;15.50;;
8632;SDS011;4354;49.832;10.746;2022-11-25T06:53:45;17.57;;;12.87;;
8632;SDS011;4354;49.832;10.746;2022-11-25T06:56:14;35.10;;;20.20;;
8632;SDS011;4354;49.832;10.746;2022-11-25T06:58:47;20.83;;;12.50;;
8632;SDS011;4354;49.832;10.746;2022-11-25T07:03:42;13.00;;;11.03;;
8632;SDS011;4354;49.832;10.746;2022-11-25T07:06:10;13.13;;;10.50;;
8632;SDS011;4354;49.832;10.746;2022-11-25T07:08:39;14.20;;;11.27;;
8632;SDS011;4354;49.832;10.746;2022-11-25T07:11:11;23.23;;;16.87;;
8632;SDS011;4354;49.832;10.746;2022-11-25T07:13:50;38.60;;;22.53;;
8632;SDS011;4354;49.832;10.746;2022-11-25T07:16:18;37.23;;;23.83;;
8632;SDS011;4354;49.832;10.746;2022-11-25T07:18:45;46.77;;;27.23;;
8632;SDS011;4354;49.832;10.746;2022-11-25T07:21:13;37.43;;;22.67;;
8632;SDS011;4354;49.832;10.746;2022-11-25T07:23:42;56.23;;;30.27;;
8632;SDS011;4354;49.832;10.746;2022-11-25T07:26:14;31.50;;;20.67;;
8632;SDS011;4354;49.832;10.746;2022-11-25T07:28:43;29.67;;;18.53;;
8632;SDS011;4354;49.832;10.746;2022-11-25T07:33:54;23.37;;;15.20;;
8632;SDS011;4354;49.832;10.746;2022-11-25T07:36:26;23.47;;;14.40;;
8632;SDS011;4354;49.832;10.746;2022-11-25T07:38:53;20.80;;;14.07;;
8632;SDS011;4354;49.832;10.746;2022-11-25T07:41:22;18.10;;;13.17;;
8632;SDS011;4354;49.832;10.746;2022-11-25T07:44:01;16.43;;;12.30;;
8632;SDS011;4354;49.832;10.746;2022-11-25T07:46:33;20.37;;;14.27;;
8632;SDS011;4354;49.832;10.746;2022-11-25T07:49:05;16.00;;;14.07;;
8632;SDS011;4354;49.832;10.746;2022-11-25T07:51:37;15.93;;;13.50;;
8632;SDS011;4354;49.832;10.746;2022-11-25T07:54:10;25.53;;;18.13;;
8632;SDS011;4354;49.832;10.746;2022-11-25T07:56:38;23.60;;;18.77;;
8632;SDS011;4354;49.832;10.746;2022-11-25T07:59:06;23.40;;;15.73;;
8632;SDS011;4354;49.832;10.746;2022-11-25T08:01:37;22.63;;;13.40;;
8632;SDS011;4354;49.832;10.746;2022-11-25T08:04:05;16.60;;;13.93;;
8632;SDS011;4354;49.832;10.746;2022-11-25T08:06:36;17.90;;;13.13;;
8632;SDS011;4354;49.832;10.746;2022-11-25T08:09:05;15.30;;;12.80;;
8632;SDS011;4354;49.832;10.746;2022-11-25T08:11:32;16.37;;;11.47;;
8632;SDS011;4354;49.832;10.746;2022-11-25T08:13:59;20.77;;;12.30;;
8632;SDS011;4354;49.832;10.746;2022-11-25T08:16:26;11.70;;;9.80;;
8632;SDS011;4354;49.832;10.746;2022-11-25T08:18:59;13.50;;;9.07;;
8632;SDS011;4354;49.832;10.746;2022-11-25T08:21:30;9.80;;;7.80;;
8632;SDS011;4354;49.832;10.746;2022-11-25T08:23:57;10.77;;;7.37;;
8632;SDS011;4354;49.832;10.746;2022-11-25T08:26:25;10.73;;;7.10;;
8632;SDS011;4354;49.832;10.746;2022-11-25T08:28:58;8.77;;;6.17;;
8632;SDS011;4354;49.832;10.746;2022-11-25T08:31:30;9.30;;;6.00;;
8632;SDS011;4354;49.832;10.746;2022-11-25T08:33:59;7.77;;;5.87;;
8632;SDS011;4354;49.832;10.746;2022-11-25T08:36:29;9.93;;;7.53;;
8632;SDS011;4354;49.832;10.746;2022-11-25T08:38:57;8.57;;;6.97;;
8632;SDS011;4354;49.832;10.746;2022-11-25T08:43:55;12.17;;;7.93;;
8632;SDS011;4354;49.832;10.746;2022-11-25T08:46:24;9.90;;;7.50;;
8632;SDS011;4354;49.832;10.746;2022-11-25T08:48:53;9.83;;;6.53;;
8632;SDS011;4354;49.832;10.746;2022-11-25T08:51:21;7.73;;;6.20;;
8632;SDS011;4354;49.832;10.746;2022-11-25T08:53:50;7.57;;;6.47;;
8632;SDS011;4354;49.832;10.746;2022-11-25T08:56:18;9.03;;;7.43;;
8632;SDS011;4354;49.832;10.746;2022-11-25T08:58:51;9.33;;;8.33;;
8632;SDS011;4354;49.832;10.746;2022-11-25T09:01:19;9.50;;;7.33;;
8632;SDS011;4354;49.832;10.746;2022-11-25T09:03:47;10.53;;;8.40;;
8632;SDS011;4354;49.832;10.746;2022-11-25T09:06:16;9.07;;;7.20;;
8632;SDS011;4354;49.832;10.746;2022-11-25T09:08:44;10.07;;;7.50;;
8632;SDS011;4354;49.832;10.746;2022-11-25T09:11:12;10.00;;;6.70;;
8632;SDS011;4354;49.832;10.746;2022-11-25T09:13:39;10.93;;;7.97;;
8632;SDS011;4354;49.832;10.746;2022-11-25T09:16:06;9.13;;;7.87;;
8632;SDS011;4354;49.832;10.746;2022-11-25T09:18:34;10.47;;;7.37;;
8632;SDS011;4354;49.832;10.746;2022-11-25T09:21:06;10.43;;;7.83;;
8632;SDS011;4354;49.832;10.746;2022-11-25T09:23:35;8.73;;;7.07;;
8632;SDS011;4354;49.832;10.746;2022-11-25T09:26:04;11.60;;;7.60;;
8632;SDS011;4354;49.832;10.746;2022-11-25T09:28:32;10.03;;;7.47;;
8632;SDS011;4354;49.832;10.746;2022-11-25T09:31:06;9.20;;;7.70;;
8632;SDS011;4354;49.832;10.746;2022-11-25T09:33:34;12.43;;;7.93;;
8632;SDS011;4354;49.832;10.746;2022-11-25T09:36:02;9.43;;;8.20;;
8632;SDS011;4354;49.832;10.746;2022-11-25T09:38:31;12.57;;;8.43;;
8632;SDS011;4354;49.832;10.746;2022-11-25T09:41:02;10.87;;;8.03;;
8632;SDS011;4354;49.832;10.746;2022-11-25T09:49:17;9.60;;;7.77;;
8632;SDS011;4354;49.832;10.746;2022-11-25T09:52:51;9.77;;;8.17;;
8632;SDS011;4354;49.832;10.746;2022-11-25T09:54:57;9.77;;;8.20;;
8632;SDS011;4354;49.832;10.746;2022-11-25T10:00:37;9.27;;;8.23;;
8632;SDS011;4354;49.832;10.746;2022-11-25T10:08:29;9.50;;;8.47;;
8632;SDS011;4354;49.832;10.746;2022-11-25T10:11:16;10.50;;;8.73;;
8632;SDS011;4354;49.832;10.746;2022-11-25T10:19:02;11.40;;;7.90;;
8632;SDS011;4354;49.832;10.746;2022-11-25T10:21:38;10.40;;;8.20;;
8632;SDS011;4354;49.832;10.746;2022-11-25T10:24:07;12.07;;;8.53;;
8632;SDS011;4354;49.832;10.746;2022-11-25T10:26:41;9.73;;;8.40;;
8632;SDS011;4354;49.832;10.746;2022-11-25T10:29:18;12.63;;;9.00;;
8632;SDS011;4354;49.832;10.746;2022-11-25T10:31:49;12.07;;;8.87;;
8632;SDS011;4354;49.832;10.746;2022-11-25T10:37:13;11.70;;;8.23;;
8632;SDS011;4354;49.832;10.746;2022-11-25T10:39:48;10.93;;;9.20;;
8632;SDS011;4354;49.832;10.746;2022-11-25T10:42:19;12.53;;;9.27;;
8632;SDS011;4354;49.832;10.746;2022-11-25T10:44:48;11.60;;;9.53;;
8632;SDS011;4354;49.832;10.746;2022-11-25T10:53:12;12.47;;;9.47;;
8632;SDS011;4354;49.832;10.746;2022-11-25T10:55:59;12.77;;;9.00;;
8632;SDS011;4354;49.832;10.746;2022-11-25T10:58:37;13.37;;;9.57;;
8632;SDS011;4354;49.832;10.746;2022-11-25T11:01:09;15.23;;;10.10;;
8632;SDS011;4354;49.832;10.746;2022-11-25T11:03:43;10.43;;;8.77;;
8632;SDS011;4354;49.832;10.746;2022-11-25T11:09:02;13.70;;;8.97;;
8632;SDS011;4354;49.832;10.746;2022-11-25T11:11:29;11.33;;;8.60;;
8632;SDS011;4354;49.832;10.746;2022-11-25T11:16:42;12.10;;;9.27;;
8632;SDS011;4354;49.832;10.746;2022-11-25T11:19:21;11.40;;;8.57;;
8632;SDS011;4354;49.832;10.746;2022-11-25T11:21:54;10.40;;;9.23;;
8632;SDS011;4354;49.832;10.746;2022-11-25T11:27:01;12.40;;;9.93;;
8632;SDS011;4354;49.832;10.746;2022-11-25T11:29:31;15.33;;;10.00;;
8632;SDS011;4354;49.832;10.746;2022-11-25T11:31:59;11.60;;;10.17;;
8632;SDS011;4354;49.832;10.746;2022-11-25T11:37:34;11.63;;;9.53;;
8632;SDS011;4354;49.832;10.746;2022-11-25T11:40:18;10.23;;;9.13;;
8632;SDS011;4354;49.832;10.746;2022-11-25T11:50:49;11.73;;;10.33;;
8632;SDS011;4354;49.832;10.746;2022-11-25T11:56:06;15.40;;;10.13;;
8632;SDS011;4354;49.832;10.746;2022-11-25T12:04:43;16.77;;;11.20;;
8632;SDS011;4354;49.832;10.746;2022-11-25T12:07:21;21.17;;;15.20;;
8632;SDS011;4354;49.832;10.746;2022-11-25T12:10:03;26.30;;;22.40;;
8632;SDS011;4354;49.832;10.746;2022-11-25T12:12:58;15.97;;;13.23;;
8632;SDS011;4354;49.832;10.746;2022-11-25T12:16:14;13.90;;;11.70;;
8632;SDS011;4354;49.832;10.746;2022-11-25T12:18:53;15.37;;;11.43;;
8632;SDS011;4354;49.832;10.746;2022-11-25T12:22:02;13.70;;;11.10;;
8632;SDS011;4354;49.832;10.746;2022-11-25T12:24:47;12.30;;;11.03;;
8632;SDS011;4354;49.832;10.746;2022-11-25T12:27:26;15.17;;;11.20;;
8632;SDS011;4354;49.832;10.746;2022-11-25T12:30:24;13.83;;;11.30;;
8632;SDS011;4354;49.832;10.746;2022-11-25T12:33:25;17.80;;;11.27;;
8632;SDS011;4354;49.832;10.746;2022-11-25T12:36:36;13.73;;;10.33;;
8632;SDS011;4354;49.832;10.746;2022-11-25T12:42:09;15.27;;;12.03;;
8632;SDS011;4354;49.832;10.746;2022-11-25T12:45:15;13.10;;;11.63;;
8632;SDS011;4354;49.832;10.746;2022-11-25T12:47:45;11.97;;;10.43;;
8632;SDS011;4354;49.832;10.746;2022-11-25T12:50:16;13.10;;;11.03;;
8632;SDS011;4354;49.832;10.746;2022-11-25T12:55:35;13.67;;;12.03;;
8632;SDS011;4354;49.832;10.746;2022-11-25T13:06:48;15.50;;;12.43;;
8632;SDS011;4354;49.832;10.746;2022-11-25T13:17:42;14.63;;;12.57;;
8632;SDS011;4354;49.832;10.746;2022-11-25T13:20:24;14.00;;;12.53;;
8632;SDS011;4354;49.832;10.746;2022-11-25T13:23:05;12.83;;;11.47;;
8632;SDS011;4354;49.832;10.746;2022-11-25T13:25:34;14.27;;;12.03;;
8632;SDS011;4354;49.832;10.746;2022-11-25T13:36:17;16.53;;;14.07;;
8632;SDS011;4354;49.832;10.746;2022-11-25T13:54:42;16.57;;;14.60;;
8632;SDS011;4354;49.832;10.746;2022-11-25T13:57:16;18.23;;;15.37;;
8632;SDS011;4354;49.832;10.746;2022-11-25T14:02:23;16.07;;;14.43;;
8632;SDS011;4354;49.832;10.746;2022-11-25T14:04:56;15.83;;;14.07;;
8632;SDS011;4354;49.832;10.746;2022-11-25T14:10:41;16.60;;;14.07;;
8632;SDS011;4354;49.832;10.746;2022-11-25T14:25:11;20.53;;;15.33;;
8632;SDS011;4354;49.832;10.746;2022-11-25T14:27:39;17.20;;;14.70;;
8632;SDS011;4354;49.832;10.746;2022-11-25T14:30:12;18.60;;;15.10;;
8632;SDS011;4354;49.832;10.746;2022-11-25T14:32:46;17.57;;;14.60;;
8632;SDS011;4354;49.832;10.746;2022-11-25T14:35:25;15.10;;;13.47;;
8632;SDS011;4354;49.832;10.746;2022-11-25T14:38:24;17.77;;;14.90;;
8632;SDS011;4354;49.832;10.746;2022-11-25T14:41:07;16.57;;;13.73;;
8632;SDS011;4354;49.832;10.746;2022-11-25T14:43:46;17.40;;;14.23;;
8632;SDS011;4354;49.832;10.746;2022-11-25T14:46:21;15.37;;;13.63;;
8632;SDS011;4354;49.832;10.746;2022-11-25T14:51:20;16.00;;;13.90;;
8632;SDS011;4354;49.832;10.746;2022-11-25T14:53:50;16.60;;;14.90;;
8632;SDS011;4354;49.832;10.746;2022-11-25T14:56:23;16.20;;;14.50;;
8632;SDS011;4354;49.832;10.746;2022-11-25T14:58:56;16.77;;;13.47;;
8632;SDS011;4354;49.832;10.746;2022-11-25T15:01:25;15.07;;;13.17;;
8632;SDS011;4354;49.832;10.746;2022-11-25T15:04:14;14.50;;;11.93;;
8632;SDS011;4354;49.832;10.746;2022-11-25T15:06:48;17.40;;;14.53;;
8632;SDS011;4354;49.832;10.746;2022-11-25T15:09:20;15.03;;;12.80;;
8632;SDS011;4354;49.832;10.746;2022-11-25T15:12:01;18.23;;;13.27;;
8632;SDS011;4354;49.832;10.746;2022-11-25T15:14:35;29.23;;;21.63;;
8632;SDS011;4354;49.832;10.746;2022-11-25T15:17:05;38.10;;;28.47;;
8632;SDS011;4354;49.832;10.746;2022-11-25T15:19:34;29.53;;;23.03;;
8632;SDS011;4354;49.832;10.746;2022-11-25T15:22:03;24.77;;;19.57;;
8632;SDS011;4354;49.832;10.746;2022-11-25T15:24:48;21.63;;;17.10;;
8632;SDS011;4354;49.832;10.746;2022-11-25T15:29:52;19.60;;;15.73;;
8632;SDS011;4354;49.832;10.746;2022-11-25T15:32:24;17.40;;;13.80;;
8632;SDS011;4354;49.832;10.746;2022-11-25T15:34:58;17.10;;;12.87;;
8632;SDS011;4354;49.832;10.746;2022-11-25T15:37:27;16.93;;;12.60;;
8632;SDS011;4354;49.832;10.746;2022-11-25T15:43:03;13.97;;;11.27;;
8632;SDS011;4354;49.832;10.746;2022-11-25T15:45:37;16.27;;;11.27;;
8632;SDS011;4354;49.832;10.746;2022-11-25T15:50:51;16.13;;;12.67;;
8632;SDS011;4354;49.832;10.746;2022-11-25T15:53:22;13.13;;;11.00;;
8632;SDS011;4354;49.832;10.746;2022-11-25T15:55:59;15.97;;;11.63;;
8632;SDS011;4354;49.832;10.746;2022-11-25T15:58:26;13.73;;;12.10;;
8632;SDS011;4354;49.832;10.746;2022-11-25T16:01:04;12.10;;;10.90;;
8632;SDS011;4354;49.832;10.746;2022-11-25T16:03:33;14.13;;;11.50;;
8632;SDS011;4354;49.832;10.746;2022-11-25T16:06:01;11.93;;;10.40;;
8632;SDS011;4354;49.832;10.746;2022-11-25T16:08:35;12.03;;;10.17;;
8632;SDS011;4354;49.832;10.746;2022-11-25T16:11:10;14.40;;;12.00;;
8632;SDS011;4354;49.832;10.746;2022-11-25T16:13:45;14.70;;;11.90;;
8632;SDS011;4354;49.832;10.746;2022-11-25T16:16:26;14.30;;;11.87;;
8632;SDS011;4354;49.832;10.746;2022-11-25T16:21:29;12.33;;;10.90;;
8632;SDS011;4354;49.832;10.746;2022-11-25T16:26:49;20.57;;;15.27;;
8632;SDS011;4354;49.832;10.746;2022-11-25T16:29:46;18.60;;;15.07;;
8632;SDS011;4354;49.832;10.746;2022-11-25T16:32:16;19.60;;;16.50;;
8632;SDS011;4354;49.832;10.746;2022-11-25T16:34:44;21.23;;;16.67;;
8632;SDS011;4354;49.832;10.746;2022-11-25T16:37:12;21.10;;;17.13;;
8632;SDS011;4354;49.832;10.746;2022-11-25T16:39:39;19.73;;;16.27;;
8632;SDS011;4354;49.832;10.746;2022-11-25T16:42:06;32.57;;;21.73;;
8632;SDS011;4354;49.832;10.746;2022-11-25T16:44:39;29.33;;;21.50;;
8632;SDS011;4354;49.832;10.746;2022-11-25T16:47:07;50.17;;;29.93;;
8632;SDS011;4354;49.832;10.746;2022-11-25T16:49:35;46.07;;;27.57;;
8632;SDS011;4354;49.832;10.746;2022-11-25T16:52:03;48.53;;;28.77;;
8632;SDS011;4354;49.832;10.746;2022-11-25T16:54:30;30.30;;;21.50;;
8632;SDS011;4354;49.832;10.746;2022-11-25T16:56:57;29.20;;;21.27;;
8632;SDS011;4354;49.832;10.746;2022-11-25T17:01:55;27.77;;;19.27;;
8632;SDS011;4354;49.832;10.746;2022-11-25T17:04:24;27.17;;;18.83;;
8632;SDS011;4354;49.832;10.746;2022-11-25T17:09:33;22.67;;;16.80;;
8632;SDS011;4354;49.832;10.746;2022-11-25T17:12:00;18.63;;;15.23;;
8632;SDS011;4354;49.832;10.746;2022-11-25T17:14:28;20.47;;;14.10;;
8632;SDS011;4354;49.832;10.746;2022-11-25T17:16:58;18.77;;;15.17;;
8632;SDS011;4354;49.832;10.746;2022-11-25T17:19:26;17.80;;;14.40;;
8632;SDS011;4354;49.832;10.746;2022-11-25T17:21:53;22.80;;;17.83;;
8632;SDS011;4354;49.832;10.746;2022-11-25T17:24:21;36.17;;;26.83;;
8632;SDS011;4354;49.832;10.746;2022-11-25T17:26:59;25.50;;;21.73;;
8632;SDS011;4354;49.832;10.746;2022-11-25T17:29:31;24.47;;;20.20;;
8632;SDS011;4354;49.832;10.746;2022-11-25T17:32:01;25.20;;;20.77;;
8632;SDS011;4354;49.832;10.746;2022-11-25T17:34:38;23.70;;;20.70;;
8632;SDS011;4354;49.832;10.746;2022-11-25T17:37:15;24.53;;;20.63;;
8632;SDS011;4354;49.832;10.746;2022-11-25T17:39:48;23.17;;;20.43;;
8632;SDS011;4354;49.832;10.746;2022-11-25T17:42:18;24.17;;;19.97;;
8632;SDS011;4354;49.832;10.746;2022-11-25T17:45:01;23.73;;;19.47;;
8632;SDS011;4354;49.832;10.746;2022-11-25T17:47:28;22.07;;;18.13;;
8632;SDS011;4354;49.832;10.746;2022-11-25T17:49:55;21.73;;;18.63;;